Time;durP1;ratioP1;P1;durP2;ratioP2;P2;SDS_P1;SDS_P2;PMS_P1;PMS_P2;Temp;Humidity;BMP_temperature;BMP_pressure;BME280_temperature;BME280_humidity;BME280_pressure;Samples;Min_cycle;Max_cycle;Signal;HPM_P1;HPM_P2
2024/01/09 00:00:51;;;;;;;;;;;0.70;38.60;;;;;;5032846;28;19905;-77
2024/01/09 00:03:16;;;;;;;;;;;0.70;39.30;;;;;;5033093;28;20011;-76
2024/01/09 00:05:42;;;;;;;;;;;0.60;39.50;;;;;;5032611;28;19911;-78
2024/01/09 00:08:07;;;;;;;;;;;0.70;39.70;;;;;;5033991;28;20437;-76
2024/01/09 00:10:33;;;;;;;;;;;0.80;39.00;;;;;;5034437;28;19909;-76
2024/01/09 00:12:58;;;;;;;;;;;0.70;39.00;;;;;;5032598;28;20023;-76
2024/01/09 00:15:24;;;;;;;;;;;0.60;38.50;;;;;;5033027;28;19912;-76
2024/01/09 00:17:50;;;;;;;;;;;0.80;39.00;;;;;;5034083;28;19948;-75
2024/01/09 00:20:16;;;;;;;;;;;0.80;39.30;;;;;;5027975;28;19909;-76
2024/01/09 00:22:42;;;;;;;;;;;0.70;39.10;;;;;;5034432;28;19928;-77
2024/01/09 00:25:08;;;;;;;;;;;0.80;38.40;;;;;;5033924;28;19992;-76
2024/01/09 00:27:34;;;;;;;;;;;0.70;38.60;;;;;;5032001;28;19924;-76
2024/01/09 00:29:59;;;;;;;;;;;0.70;39.00;;;;;;5033465;28;19909;-77
2024/01/09 00:32:25;;;;;;;;;;;0.80;39.20;;;;;;5032271;28;20388;-77
2024/01/09 00:34:50;;;;;;;;;;;0.90;38.80;;;;;;5031726;28;19967;-77
2024/01/09 00:37:16;;;;;;;;;;;0.90;39.20;;;;;;5032231;28;20324;-77
2024/01/09 00:39:41;;;;;;;;;;;0.90;39.00;;;;;;5031897;28;19908;-77
2024/01/09 00:42:07;;;;;;;;;;;0.90;38.20;;;;;;5033441;28;19932;-77
2024/01/09 00:44:32;;;;;;;;;;;0.90;38.00;;;;;;5033271;28;19909;-76
2024/01/09 00:46:58;;;;;;;;;;;0.80;38.80;;;;;;5032457;28;19909;-76
2024/01/09 00:49:23;;;;;;;;;;;0.90;39.00;;;;;;5033447;28;19917;-76
2024/01/09 00:51:49;;;;;;;;;;;0.80;38.70;;;;;;5033399;28;19912;-76
2024/01/09 00:54:14;;;;;;;;;;;0.80;38.20;;;;;;5032149;28;19928;-76
2024/01/09 00:56:40;;;;;;;;;;;0.90;38.30;;;;;;5033714;28;20370;-77
2024/01/09 00:59:05;;;;;;;;;;;0.90;39.40;;;;;;5032310;28;20040;-76
2024/01/09 01:01:31;;;;;;;;;;;0.80;40.20;;;;;;5032652;28;20003;-75
2024/01/09 01:03:56;;;;;;;;;;;0.90;38.50;;;;;;5033223;28;20432;-76
2024/01/09 01:06:22;;;;;;;;;;;0.80;39.30;;;;;;5032071;28;19970;-76
2024/01/09 01:08:47;;;;;;;;;;;0.90;39.70;;;;;;5033255;28;19916;-77
2024/01/09 01:11:13;;;;;;;;;;;0.90;37.90;;;;;;5033430;28;19908;-76
2024/01/09 01:13:38;;;;;;;;;;;0.90;38.10;;;;;;5033847;28;19912;-76
2024/01/09 01:16:04;;;;;;;;;;;0.80;39.60;;;;;;5034230;28;19951;-76
2024/01/09 01:18:30;;;;;;;;;;;0.70;39.60;;;;;;5032858;28;19905;-76
2024/01/09 01:20:55;;;;;;;;;;;0.70;40.10;;;;;;5034811;28;19905;-77
2024/01/09 01:23:21;;;;;;;;;;;0.70;40.20;;;;;;5033330;28;19931;-77
2024/01/09 01:25:46;;;;;;;;;;;0.70;40.50;;;;;;5034583;28;19972;-76
2024/01/09 01:28:12;;;;;;;;;;;0.80;39.80;;;;;;5033227;28;19913;-77
2024/01/09 01:30:37;;;;;;;;;;;1.00;39.80;;;;;;5034121;28;19952;-77
2024/01/09 01:33:03;;;;;;;;;;;0.90;39.10;;;;;;5031173;28;19916;-76
2024/01/09 01:35:28;;;;;;;;;;;0.90;38.90;;;;;;5031665;28;19917;-77
2024/01/09 01:37:54;;;;;;;;;;;1.00;38.50;;;;;;5031641;28;19967;-77
2024/01/09 01:40:19;;;;;;;;;;;1.10;38.00;;;;;;5032982;28;20308;-77
2024/01/09 01:42:45;;;;;;;;;;;1.10;37.00;;;;;;5031451;28;19959;-77
2024/01/09 01:45:15;;;;;;;;;;;1.20;37.10;;;;;;5032788;28;19951;-77
2024/01/09 01:47:42;;;;;;;;;;;1.20;37.10;;;;;;5032709;28;19921;-77
2024/01/09 01:50:07;;;;;;;;;;;1.10;37.50;;;;;;5033954;28;19909;-77
2024/01/09 01:52:33;;;;;;;;;;;0.90;37.00;;;;;;5033250;28;19908;-77
2024/01/09 01:54:58;;;;;;;;;;;0.90;36.90;;;;;;5033412;28;19920;-77
2024/01/09 01:57:24;;;;;;;;;;;0.80;37.70;;;;;;5033337;28;19905;-76
2024/01/09 01:59:50;;;;;;;;;;;0.70;37.60;;;;;;5033800;28;19909;-76
2024/01/09 02:02:16;;;;;;;;;;;0.50;38.00;;;;;;5033182;28;19952;-77
2024/01/09 02:04:42;;;;;;;;;;;0.50;38.40;;;;;;5031345;28;19937;-76
2024/01/09 02:07:08;;;;;;;;;;;0.60;37.60;;;;;;5030755;28;19917;-75
2024/01/09 02:09:36;;;;;;;;;;;0.50;37.90;;;;;;5030717;28;19912;-76
2024/01/09 02:12:01;;;;;;;;;;;0.50;37.40;;;;;;5030858;28;19916;-76
2024/01/09 02:14:27;;;;;;;;;;;0.40;38.40;;;;;;5026392;28;19909;-77
2024/01/09 02:16:52;;;;;;;;;;;0.50;37.70;;;;;;5032368;28;19993;-77
2024/01/09 02:19:18;;;;;;;;;;;0.40;38.30;;;;;;5031182;28;19943;-76
2024/01/09 02:21:43;;;;;;;;;;;0.30;38.10;;;;;;5031916;28;19917;-76
2024/01/09 02:24:09;;;;;;;;;;;0.30;38.00;;;;;;5030686;28;20390;-77
2024/01/09 02:26:37;;;;;;;;;;;0.20;39.00;;;;;;5030872;28;19955;-77
2024/01/09 02:29:05;;;;;;;;;;;0.10;39.80;;;;;;5030935;28;19924;-77
2024/01/09 02:31:31;;;;;;;;;;;0.10;38.70;;;;;;5031942;28;19905;-77
2024/01/09 02:33:57;;;;;;;;;;;0.20;39.00;;;;;;5033436;28;20358;-77
2024/01/09 02:36:23;;;;;;;;;;;0.40;38.90;;;;;;5052382;28;19909;-77
2024/01/09 02:38:48;;;;;;;;;;;0.30;38.80;;;;;;5051900;28;19905;-77
2024/01/09 02:41:14;;;;;;;;;;;0.10;39.10;;;;;;5051549;28;19909;-77
2024/01/09 02:43:39;;;;;;;;;;;0.00;39.20;;;;;;5033758;28;20380;-77
2024/01/09 02:46:05;;;;;;;;;;;0.00;39.30;;;;;;5055134;28;19908;-77
2024/01/09 02:48:30;;;;;;;;;;;-0.10;40.00;;;;;;5055733;28;20385;-77
2024/01/09 02:50:56;;;;;;;;;;;-0.10;40.60;;;;;;5037433;28;19909;-77
2024/01/09 02:53:21;;;;;;;;;;;-0.10;40.10;;;;;;5037486;28;19948;-78
2024/01/09 02:55:47;;;;;;;;;;;0.00;40.00;;;;;;5055299;28;19947;-77
2024/01/09 02:58:13;;;;;;;;;;;-0.10;40.10;;;;;;5036944;28;20424;-77
2024/01/09 03:00:38;;;;;;;;;;;-0.10;40.60;;;;;;5037403;28;20261;-77
2024/01/09 03:03:04;;;;;;;;;;;0.00;40.80;;;;;;5055081;28;19912;-77
2024/01/09 03:05:31;;;;;;;;;;;0.00;40.00;;;;;;5037173;28;19908;-77
2024/01/09 03:07:56;;;;;;;;;;;0.10;39.80;;;;;;5037163;28;19958;-77
2024/01/09 03:10:22;;;;;;;;;;;0.10;40.50;;;;;;5037136;28;19904;-77
2024/01/09 03:12:47;;;;;;;;;;;0.00;39.80;;;;;;5037161;28;19909;-77
2024/01/09 03:15:13;;;;;;;;;;;0.20;39.80;;;;;;5036846;28;19912;-77
2024/01/09 03:17:38;;;;;;;;;;;0.20;40.30;;;;;;5054834;28;19943;-77
2024/01/09 03:20:05;;;;;;;;;;;0.40;39.50;;;;;;5036734;28;20308;-77
2024/01/09 03:22:31;;;;;;;;;;;0.30;38.90;;;;;;5054708;28;19905;-76
2024/01/09 03:24:56;;;;;;;;;;;0.30;39.30;;;;;;5054747;28;19958;-76
2024/01/09 03:27:22;;;;;;;;;;;0.40;39.30;;;;;;5054082;28;20373;-76
2024/01/09 03:29:47;;;;;;;;;;;0.40;39.20;;;;;;5036637;28;19991;-76
2024/01/09 03:32:13;;;;;;;;;;;0.40;38.70;;;;;;5036353;28;19915;-77
2024/01/09 03:34:39;;;;;;;;;;;0.50;38.40;;;;;;5054389;28;19916;-77
2024/01/09 03:37:07;;;;;;;;;;;0.40;38.20;;;;;;5054614;28;20442;-76
2024/01/09 03:39:33;;;;;;;;;;;0.50;38.60;;;;;;5036596;28;19905;-76
2024/01/09 03:41:58;;;;;;;;;;;0.60;37.50;;;;;;5036485;28;19905;-76
2024/01/09 03:44:24;;;;;;;;;;;0.70;37.20;;;;;;5036412;28;19909;-77
2024/01/09 03:46:49;;;;;;;;;;;0.80;37.00;;;;;;5054287;28;19919;-77
2024/01/09 03:49:15;;;;;;;;;;;0.90;36.90;;;;;;5054293;28;20349;-77
2024/01/09 03:51:40;;;;;;;;;;;0.90;37.00;;;;;;5036788;28;19954;-77
2024/01/09 03:54:06;;;;;;;;;;;0.80;37.60;;;;;;5055318;28;19904;-76
2024/01/09 03:56:31;;;;;;;;;;;0.90;37.60;;;;;;5035920;28;20344;-76
2024/01/09 03:58:57;;;;;;;;;;;0.90;37.40;;;;;;5054025;28;20388;-77
2024/01/09 04:01:22;;;;;;;;;;;1.00;36.90;;;;;;5036648;28;19911;-77
2024/01/09 04:03:48;;;;;;;;;;;0.80;38.20;;;;;;5055130;28;19905;-77
2024/01/09 04:06:13;;;;;;;;;;;0.70;38.00;;;;;;5037035;28;19912;-77
2024/01/09 04:08:39;;;;;;;;;;;0.90;37.60;;;;;;5037263;28;19920;-77
2024/01/09 04:11:04;;;;;;;;;;;1.00;37.20;;;;;;5054541;28;19905;-77
2024/01/09 04:13:30;;;;;;;;;;;1.00;37.00;;;;;;5054932;28;20380;-77
2024/01/09 04:15:56;;;;;;;;;;;1.00;37.50;;;;;;5054636;28;19948;-77
2024/01/09 04:18:22;;;;;;;;;;;0.80;37.90;;;;;;5037703;28;19905;-77
2024/01/09 04:20:48;;;;;;;;;;;0.90;37.80;;;;;;5055406;28;20401;-77
2024/01/09 04:23:13;;;;;;;;;;;1.30;36.20;;;;;;5055174;28;19919;-77
2024/01/09 04:25:39;;;;;;;;;;;1.60;35.30;;;;;;5054734;28;19904;-77
2024/01/09 04:28:04;;;;;;;;;;;1.70;34.90;;;;;;5037225;28;19917;-76
2024/01/09 04:30:30;;;;;;;;;;;1.90;34.00;;;;;;5055004;28;19927;-77
2024/01/09 04:32:55;;;;;;;;;;;2.10;33.70;;;;;;5055567;28;19963;-77
2024/01/09 04:35:21;;;;;;;;;;;2.00;33.80;;;;;;5055395;28;19917;-77
2024/01/09 04:37:46;;;;;;;;;;;1.90;34.60;;;;;;5056143;28;20376;-77
2024/01/09 04:40:12;;;;;;;;;;;1.60;36.10;;;;;;5038084;28;20011;-77
2024/01/09 04:42:37;;;;;;;;;;;1.50;36.40;;;;;;5055523;28;19974;-77
2024/01/09 04:45:03;;;;;;;;;;;1.20;38.00;;;;;;5055585;28;19912;-77
2024/01/09 04:47:29;;;;;;;;;;;0.90;38.40;;;;;;5055078;28;19923;-77
2024/01/09 04:49:54;;;;;;;;;;;0.70;38.30;;;;;;5037299;28;19974;-77
2024/01/09 04:52:20;;;;;;;;;;;0.50;38.40;;;;;;5036490;28;19912;-77
2024/01/09 04:54:45;;;;;;;;;;;0.30;39.10;;;;;;5035624;28;19913;-77
2024/01/09 04:57:11;;;;;;;;;;;0.10;39.90;;;;;;5053566;28;19911;-77
2024/01/09 04:59:36;;;;;;;;;;;0.10;40.20;;;;;;5035535;28;20411;-77
2024/01/09 05:02:02;;;;;;;;;;;0.00;40.00;;;;;;5035515;28;20361;-77
2024/01/09 05:04:31;;;;;;;;;;;-0.10;40.30;;;;;;5053104;28;20350;-77
2024/01/09 05:06:56;;;;;;;;;;;-0.10;40.60;;;;;;5053023;28;19959;-77
2024/01/09 05:09:23;;;;;;;;;;;0.00;40.50;;;;;;5035148;28;19943;-77
2024/01/09 05:11:48;;;;;;;;;;;-0.20;40.50;;;;;;5052869;28;19905;-76
2024/01/09 05:14:14;;;;;;;;;;;-0.30;40.80;;;;;;5035394;28;19909;-76
2024/01/09 05:16:39;;;;;;;;;;;-0.40;40.60;;;;;;5035289;28;19905;-76
2024/01/09 05:19:05;;;;;;;;;;;-0.40;41.10;;;;;;5053381;28;20003;-76
2024/01/09 05:21:31;;;;;;;;;;;-0.30;40.80;;;;;;5053486;28;19927;-76
2024/01/09 05:23:56;;;;;;;;;;;-0.30;41.20;;;;;;5053352;28;19931;-76
2024/01/09 05:26:22;;;;;;;;;;;-0.20;40.20;;;;;;5035761;28;20348;-77
2024/01/09 05:28:47;;;;;;;;;;;-0.10;40.60;;;;;;5035875;28;19912;-77
2024/01/09 05:31:13;;;;;;;;;;;-0.20;39.60;;;;;;5054109;28;19915;-77
2024/01/09 05:33:39;;;;;;;;;;;-0.20;40.90;;;;;;5053335;28;19908;-77
2024/01/09 05:36:05;;;;;;;;;;;-0.20;41.30;;;;;;5053564;28;20392;-77
2024/01/09 05:38:30;;;;;;;;;;;-0.20;41.10;;;;;;5053539;28;19909;-76
2024/01/09 05:40:56;;;;;;;;;;;-0.20;40.00;;;;;;5052520;28;19905;-76
2024/01/09 05:43:21;;;;;;;;;;;-0.20;41.30;;;;;;5054185;28;19909;-76
2024/01/09 05:45:47;;;;;;;;;;;-0.10;40.90;;;;;;5054993;28;19912;-76
2024/01/09 05:48:12;;;;;;;;;;;-0.10;41.20;;;;;;5053875;28;19912;-76
2024/01/09 05:50:38;;;;;;;;;;;0.00;40.90;;;;;;5034894;28;19905;-76
2024/01/09 05:53:04;;;;;;;;;;;0.10;41.00;;;;;;5052656;28;19913;-76
2024/01/09 05:55:29;;;;;;;;;;;0.00;41.60;;;;;;5035787;28;19905;-76
2024/01/09 05:57:55;;;;;;;;;;;-0.10;41.80;;;;;;5053455;28;20547;-76
2024/01/09 06:00:20;;;;;;;;;;;-0.10;41.00;;;;;;5035817;28;19912;-77
2024/01/09 06:02:46;;;;;;;;;;;0.00;41.10;;;;;;5053311;28;19936;-77
2024/01/09 06:05:11;;;;;;;;;;;0.20;40.00;;;;;;5053718;28;19905;-77
2024/01/09 06:07:37;;;;;;;;;;;0.30;41.20;;;;;;5054108;28;19972;-77
2024/01/09 06:10:03;;;;;;;;;;;0.10;41.50;;;;;;5053118;28;19913;-76
2024/01/09 06:12:28;;;;;;;;;;;0.00;41.30;;;;;;5052422;28;20289;-76
2024/01/09 06:14:54;;;;;;;;;;;0.00;42.70;;;;;;5035501;28;19909;-77
2024/01/09 06:17:19;;;;;;;;;;;-0.10;43.10;;;;;;5053684;28;19904;-76
2024/01/09 06:19:45;;;;;;;;;;;-0.10;43.70;;;;;;5037546;28;19912;-77
2024/01/09 06:22:12;;;;;;;;;;;-0.10;43.90;;;;;;5057696;28;19908;-77
2024/01/09 06:24:37;;;;;;;;;;;-0.20;43.70;;;;;;5040384;28;19916;-77
2024/01/09 06:27:03;;;;;;;;;;;-0.20;44.30;;;;;;5039142;28;20289;-77
2024/01/09 06:29:29;;;;;;;;;;;-0.10;43.90;;;;;;5056946;28;20292;-77
2024/01/09 06:31:54;;;;;;;;;;;-0.20;43.40;;;;;;5039022;28;19909;-77
2024/01/09 06:34:20;;;;;;;;;;;-0.10;42.90;;;;;;5039343;28;19923;-76
2024/01/09 06:36:45;;;;;;;;;;;-0.20;43.00;;;;;;5039863;28;19939;-76
2024/01/09 06:39:12;;;;;;;;;;;-0.20;42.50;;;;;;5039495;28;19966;-76
2024/01/09 06:41:37;;;;;;;;;;;-0.30;43.30;;;;;;5058018;28;19996;-76
2024/01/09 06:44:03;;;;;;;;;;;-0.20;42.40;;;;;;5040118;28;19944;-77
2024/01/09 06:46:29;;;;;;;;;;;-0.30;42.30;;;;;;5039937;28;19913;-77
2024/01/09 06:48:54;;;;;;;;;;;-0.30;43.70;;;;;;5058248;28;19909;-76
2024/01/09 06:51:20;;;;;;;;;;;-0.30;43.70;;;;;;5057898;28;19904;-77
2024/01/09 06:53:45;;;;;;;;;;;-0.20;43.40;;;;;;5039464;28;19947;-77
2024/01/09 06:56:11;;;;;;;;;;;-0.10;41.80;;;;;;5058056;28;19905;-77
2024/01/09 06:58:36;;;;;;;;;;;-0.20;42.70;;;;;;5057916;28;19905;-76
2024/01/09 07:01:03;;;;;;;;;;;-0.20;43.60;;;;;;5041336;28;20008;-77
2024/01/09 07:03:30;;;;;;;;;;;-0.20;44.10;;;;;;5058414;28;19915;-76
2024/01/09 07:05:55;;;;;;;;;;;-0.10;41.70;;;;;;5038727;28;19958;-77
2024/01/09 07:08:21;;;;;;;;;;;0.00;42.80;;;;;;5055746;28;19913;-77
2024/01/09 07:10:47;;;;;;;;;;;0.10;42.40;;;;;;5037500;28;19978;-76
2024/01/09 07:13:12;;;;;;;;;;;0.40;38.50;;;;;;5055527;28;19992;-77
2024/01/09 07:15:38;;;;;;;;;;;0.40;39.10;;;;;;5037231;28;19904;-76
2024/01/09 07:18:03;;;;;;;;;;;0.70;37.20;;;;;;5055829;28;19955;-76
2024/01/09 07:20:29;;;;;;;;;;;0.80;36.70;;;;;;5038639;28;19909;-77
2024/01/09 07:22:55;;;;;;;;;;;0.90;39.40;;;;;;5037644;28;19912;-76
2024/01/09 07:25:20;;;;;;;;;;;1.00;37.10;;;;;;5038165;28;20370;-77
2024/01/09 07:27:46;;;;;;;;;;;1.40;36.40;;;;;;5038009;28;19950;-77
2024/01/09 07:30:12;;;;;;;;;;;1.40;36.60;;;;;;5055496;28;19909;-77
2024/01/09 07:32:37;;;;;;;;;;;1.70;34.10;;;;;;5037574;28;19905;-77
2024/01/09 07:35:03;;;;;;;;;;;1.90;32.50;;;;;;5055492;28;19924;-76
2024/01/09 07:37:29;;;;;;;;;;;1.90;32.80;;;;;;5062285;28;19908;-76
2024/01/09 07:40:09;;;;;;;;;;;2.10;31.80;;;;;;5100916;27;2033858;-75
2024/01/09 07:42:35;;;;;;;;;;;2.10;31.70;;;;;;5148575;27;19911;-75
2024/01/09 07:45:00;;;;;;;;;;;2.20;31.40;;;;;;5162170;27;19907;-75
2024/01/09 07:47:26;;;;;;;;;;;2.20;30.30;;;;;;5151610;27;19911;-75
2024/01/09 07:49:51;;;;;;;;;;;2.20;30.40;;;;;;5153238;27;19991;-75
2024/01/09 07:52:17;;;;;;;;;;;2.20;31.50;;;;;;5172603;27;19908;-76
2024/01/09 07:54:42;;;;;;;;;;;2.20;31.10;;;;;;5151662;27;20375;-75
2024/01/09 07:57:08;;;;;;;;;;;2.30;30.60;;;;;;5171875;27;20446;-76
2024/01/09 07:59:33;;;;;;;;;;;2.10;31.50;;;;;;5166377;27;19925;-75
2024/01/09 08:02:01;;;;;;;;;;;2.10;31.50;;;;;;5163113;27;19911;-75
2024/01/09 08:04:26;;;;;;;;;;;2.10;31.10;;;;;;5144497;27;19959;-75
2024/01/09 08:06:52;;;;;;;;;;;2.20;30.50;;;;;;5141665;27;19911;-76
2024/01/09 08:09:18;;;;;;;;;;;2.30;31.20;;;;;;5161504;27;20287;-75
2024/01/09 08:11:44;;;;;;;;;;;2.20;31.40;;;;;;5150762;27;19932;-75
2024/01/09 08:14:10;;;;;;;;;;;2.40;30.60;;;;;;5147376;27;19915;-75
2024/01/09 08:16:35;;;;;;;;;;;2.40;31.10;;;;;;5144037;27;19913;-76
2024/01/09 08:19:01;;;;;;;;;;;2.50;30.90;;;;;;5161507;27;19919;-76
2024/01/09 08:21:26;;;;;;;;;;;2.50;30.40;;;;;;5133073;27;20009;-75
2024/01/09 08:23:52;;;;;;;;;;;2.50;31.30;;;;;;5157214;27;19911;-76
2024/01/09 08:26:17;;;;;;;;;;;2.60;30.00;;;;;;5142821;27;19998;-76
2024/01/09 08:28:43;;;;;;;;;;;2.90;30.00;;;;;;5160998;27;20378;-75
2024/01/09 08:31:08;;;;;;;;;;;3.00;29.90;;;;;;5162797;27;20051;-76
2024/01/09 08:33:34;;;;;;;;;;;3.30;29.80;;;;;;5142762;27;20438;-76
2024/01/09 08:36:01;;;;;;;;;;;3.30;29.30;;;;;;5141564;27;19907;-75
2024/01/09 08:38:27;;;;;;;;;;;3.60;28.80;;;;;;5123947;27;19926;-75
2024/01/09 08:40:55;;;;;;;;;;;3.70;28.60;;;;;;5120943;27;19919;-75
2024/01/09 08:43:21;;;;;;;;;;;3.60;29.10;;;;;;5133585;27;19907;-76
2024/01/09 08:45:48;;;;;;;;;;;3.70;29.10;;;;;;5118838;27;19912;-75
2024/01/09 08:48:14;;;;;;;;;;;4.00;27.90;;;;;;5143809;27;19907;-75
2024/01/09 08:50:39;;;;;;;;;;;3.90;28.00;;;;;;5128776;27;20604;-75
2024/01/09 08:53:05;;;;;;;;;;;3.80;27.90;;;;;;5106329;27;20406;-76
2024/01/09 08:55:30;;;;;;;;;;;3.80;28.30;;;;;;5106309;27;19908;-75
2024/01/09 08:57:56;;;;;;;;;;;3.90;28.20;;;;;;5107191;27;19916;-75
2024/01/09 09:00:21;;;;;;;;;;;3.90;27.70;;;;;;5115964;28;19924;-75
2024/01/09 09:02:47;;;;;;;;;;;3.80;27.70;;;;;;5124611;27;19919;-75
2024/01/09 09:05:12;;;;;;;;;;;3.80;27.70;;;;;;5137320;27;20303;-75
2024/01/09 09:07:38;;;;;;;;;;;3.80;28.10;;;;;;5114411;28;19908;-75
2024/01/09 09:10:04;;;;;;;;;;;3.80;27.80;;;;;;5112163;27;19911;-76
2024/01/09 09:12:31;;;;;;;;;;;3.70;27.80;;;;;;5118728;27;19908;-75
2024/01/09 09:14:56;;;;;;;;;;;3.60;27.30;;;;;;5120946;27;20400;-77
2024/01/09 09:17:22;;;;;;;;;;;3.50;28.80;;;;;;5119020;28;19908;-76
2024/01/09 09:19:47;;;;;;;;;;;3.50;28.50;;;;;;5117966;28;19923;-76
2024/01/09 09:22:13;;;;;;;;;;;3.60;27.80;;;;;;5115940;28;19907;-75
2024/01/09 09:24:38;;;;;;;;;;;3.70;28.60;;;;;;5116688;28;19912;-76
2024/01/09 09:27:04;;;;;;;;;;;3.70;27.90;;;;;;5099188;28;19914;-75
2024/01/09 09:29:30;;;;;;;;;;;3.80;27.60;;;;;;5099675;28;19908;-75
2024/01/09 09:31:55;;;;;;;;;;;3.70;28.20;;;;;;5097741;28;19912;-76
2024/01/09 09:34:21;;;;;;;;;;;3.60;28.80;;;;;;5095838;28;19907;-75
2024/01/09 09:36:46;;;;;;;;;;;3.80;28.10;;;;;;5096256;28;20014;-75
2024/01/09 09:39:13;;;;;;;;;;;3.80;27.90;;;;;;5116005;28;19930;-76
2024/01/09 09:41:43;;;;;;;;;;;3.80;28.30;;;;;;5096526;28;19912;-75
2024/01/09 09:44:12;;;;;;;;;;;3.80;27.00;;;;;;5096109;28;19912;-76
2024/01/09 09:46:39;;;;;;;;;;;3.70;27.70;;;;;;5114695;28;20054;-75
2024/01/09 09:49:05;;;;;;;;;;;3.60;27.60;;;;;;5114820;27;19907;-75
2024/01/09 09:51:31;;;;;;;;;;;3.60;27.20;;;;;;5116182;27;19907;-75
2024/01/09 09:53:57;;;;;;;;;;;3.60;28.00;;;;;;5134830;27;19919;-75
2024/01/09 09:56:24;;;;;;;;;;;3.50;26.90;;;;;;5116490;27;20058;-77
2024/01/09 09:58:49;;;;;;;;;;;3.40;28.40;;;;;;5135186;27;20379;-75
2024/01/09 10:01:15;;;;;;;;;;;3.50;28.80;;;;;;5134352;27;19958;-76
2024/01/09 10:04:03;;;;;;;;;;;3.40;28.90;;;;;;5105718;27;19948;-75
2024/01/09 10:06:31;;;;;;;;;;;3.40;28.60;;;;;;5098027;27;19995;-75
2024/01/09 10:08:56;;;;;;;;;;;3.50;27.90;;;;;;5122618;27;19936;-76
2024/01/09 10:11:23;;;;;;;;;;;3.40;28.10;;;;;;5096027;28;19912;-75
2024/01/09 10:13:49;;;;;;;;;;;3.40;28.90;;;;;;5105987;28;20429;-75
2024/01/09 10:16:14;;;;;;;;;;;3.40;29.20;;;;;;5114921;28;19955;-76
2024/01/09 10:18:40;;;;;;;;;;;3.50;28.70;;;;;;5122788;27;19922;-76
2024/01/09 10:21:06;;;;;;;;;;;3.50;28.50;;;;;;5103595;28;19926;-75
2024/01/09 10:23:34;;;;;;;;;;;3.50;29.00;;;;;;5104873;27;19912;-76
2024/01/09 10:26:00;;;;;;;;;;;3.60;28.90;;;;;;5104447;28;20386;-76
2024/01/09 10:28:25;;;;;;;;;;;3.70;29.00;;;;;;5118456;27;19912;-75
2024/01/09 10:30:52;;;;;;;;;;;3.60;28.70;;;;;;5112269;28;19911;-76
2024/01/09 10:33:17;;;;;;;;;;;3.60;28.10;;;;;;5095884;28;19912;-75
2024/01/09 10:35:43;;;;;;;;;;;3.50;28.90;;;;;;5114093;28;19986;-75
2024/01/09 10:38:09;;;;;;;;;;;3.60;29.00;;;;;;5095084;28;19912;-75
2024/01/09 10:40:35;;;;;;;;;;;3.50;28.80;;;;;;5113834;28;20417;-75
2024/01/09 10:43:00;;;;;;;;;;;3.50;28.10;;;;;;5095288;28;19919;-76
2024/01/09 10:45:27;;;;;;;;;;;3.50;29.20;;;;;;5096031;28;19907;-76
2024/01/09 10:47:56;;;;;;;;;;;3.40;29.70;;;;;;5095872;28;19916;-74
2024/01/09 10:50:21;;;;;;;;;;;3.30;30.30;;;;;;5114687;28;20030;-75
2024/01/09 10:52:48;;;;;;;;;;;3.50;28.50;;;;;;5096003;28;19965;-74
2024/01/09 10:55:14;;;;;;;;;;;3.60;29.00;;;;;;5114537;28;19915;-75
2024/01/09 10:57:40;;;;;;;;;;;3.60;29.00;;;;;;5095287;28;19919;-75
2024/01/09 11:00:08;;;;;;;;;;;3.50;29.10;;;;;;5114116;28;19941;-76
2024/01/09 11:02:36;;;;;;;;;;;3.50;28.40;;;;;;5094831;28;19958;-75
2024/01/09 11:05:02;;;;;;;;;;;3.40;29.60;;;;;;5099014;28;20621;-75
2024/01/09 11:07:30;;;;;;;;;;;3.50;28.70;;;;;;5104273;28;19912;-75
2024/01/09 11:09:56;;;;;;;;;;;3.40;29.20;;;;;;5122393;27;19918;-74
2024/01/09 11:12:24;;;;;;;;;;;3.40;30.00;;;;;;5096871;28;19908;-76
2024/01/09 11:14:52;;;;;;;;;;;3.50;29.20;;;;;;5095892;28;19908;-75
2024/01/09 11:17:19;;;;;;;;;;;3.40;29.30;;;;;;5108671;27;19915;-75
2024/01/09 11:19:45;;;;;;;;;;;3.40;29.70;;;;;;5133209;27;19922;-75
2024/01/09 11:22:13;;;;;;;;;;;3.30;30.00;;;;;;5135436;27;19911;-76
2024/01/09 11:24:39;;;;;;;;;;;3.40;30.90;;;;;;5117372;27;20003;-77
2024/01/09 11:27:11;;;;;;;;;;;3.40;30.00;;;;;;5135744;27;19960;-77
2024/01/09 11:29:46;;;;;;;;;;;3.60;29.80;;;;;;5114928;28;19907;-75
2024/01/09 11:32:11;;;;;;;;;;;3.60;30.50;;;;;;5115128;27;19912;-74
2024/01/09 11:34:41;;;;;;;;;;;3.50;29.30;;;;;;5133365;28;19907;-76
2024/01/09 11:37:11;;;;;;;;;;;3.60;29.80;;;;;;5115102;28;20406;-75
2024/01/09 11:39:37;;;;;;;;;;;3.60;28.80;;;;;;5110763;28;19920;-75
2024/01/09 11:42:03;;;;;;;;;;;3.50;29.00;;;;;;5112866;28;19915;-75
2024/01/09 11:44:29;;;;;;;;;;;3.50;28.70;;;;;;5111408;28;19912;-76
2024/01/09 11:46:55;;;;;;;;;;;3.40;29.70;;;;;;5113423;28;19911;-75
2024/01/09 11:49:20;;;;;;;;;;;3.60;28.90;;;;;;5111448;28;19953;-76
2024/01/09 11:51:46;;;;;;;;;;;3.50;29.40;;;;;;5111665;28;20330;-76
2024/01/09 11:54:12;;;;;;;;;;;3.60;29.90;;;;;;5112597;28;19916;-75
2024/01/09 11:56:38;;;;;;;;;;;3.60;29.20;;;;;;5111160;28;19912;-75
2024/01/09 11:59:04;;;;;;;;;;;3.60;30.10;;;;;;5112623;28;19941;-76
2024/01/09 12:01:29;;;;;;;;;;;3.60;28.90;;;;;;5111806;28;19912;-75
2024/01/09 12:03:58;;;;;;;;;;;3.50;29.60;;;;;;5111796;28;19908;-75
2024/01/09 12:06:25;;;;;;;;;;;3.60;29.50;;;;;;5112865;28;20422;-75
2024/01/09 12:08:51;;;;;;;;;;;3.60;29.40;;;;;;5110785;28;19963;-76
2024/01/09 12:11:16;;;;;;;;;;;3.50;29.90;;;;;;5111828;28;19915;-76
2024/01/09 12:13:42;;;;;;;;;;;3.60;29.80;;;;;;5111378;28;19912;-77
2024/01/09 12:16:18;;;;;;;;;;;3.70;30.00;;;;;;5111590;28;19908;-76
2024/01/09 12:18:51;;;;;;;;;;;3.50;29.90;;;;;;5111734;28;19911;-76
2024/01/09 12:21:17;;;;;;;;;;;3.70;30.20;;;;;;5113894;28;19914;-75
2024/01/09 12:23:43;;;;;;;;;;;3.70;29.30;;;;;;5108401;28;19912;-76
2024/01/09 12:26:09;;;;;;;;;;;3.70;29.10;;;;;;5116057;28;19915;-76
2024/01/09 12:28:35;;;;;;;;;;;3.70;29.40;;;;;;5116877;28;19992;-75
2024/01/09 12:31:03;;;;;;;;;;;3.70;29.70;;;;;;5115496;28;19907;-75
2024/01/09 12:33:29;;;;;;;;;;;3.80;29.00;;;;;;5115494;28;19908;-76
2024/01/09 12:35:56;;;;;;;;;;;3.70;29.50;;;;;;5115009;28;19912;-75
2024/01/09 12:38:22;;;;;;;;;;;3.70;31.40;;;;;;5118640;27;19958;-75
2024/01/09 12:40:57;;;;;;;;;;;3.80;29.80;;;;;;5137512;27;19938;-75
2024/01/09 12:43:23;;;;;;;;;;;3.90;28.30;;;;;;5137986;27;19933;-77
2024/01/09 12:45:49;;;;;;;;;;;3.80;28.50;;;;;;5138671;27;19979;-76
2024/01/09 12:48:15;;;;;;;;;;;3.80;28.90;;;;;;5139164;27;20379;-76
2024/01/09 12:50:41;;;;;;;;;;;3.90;28.90;;;;;;5120721;27;19915;-76
2024/01/09 12:53:06;;;;;;;;;;;3.80;29.80;;;;;;5139263;27;19911;-76
2024/01/09 12:55:32;;;;;;;;;;;4.00;27.80;;;;;;5120358;27;19985;-76
2024/01/09 12:57:58;;;;;;;;;;;4.00;28.60;;;;;;5120351;27;19911;-76
2024/01/09 13:00:24;;;;;;;;;;;4.00;28.00;;;;;;5120482;27;20288;-76
2024/01/09 13:02:50;;;;;;;;;;;4.00;28.10;;;;;;5120486;27;19908;-76
2024/01/09 13:05:15;;;;;;;;;;;4.00;28.40;;;;;;5122368;27;19912;-77
2024/01/09 13:07:41;;;;;;;;;;;3.80;28.40;;;;;;5119117;27;20462;-76
2024/01/09 13:10:06;;;;;;;;;;;3.90;28.60;;;;;;5137634;27;19943;-76
2024/01/09 13:12:32;;;;;;;;;;;3.90;27.70;;;;;;5118161;27;20006;-77
2024/01/09 13:14:57;;;;;;;;;;;3.90;28.50;;;;;;5137542;27;19919;-76
2024/01/09 13:17:23;;;;;;;;;;;4.00;27.80;;;;;;5137184;27;19922;-76
2024/01/09 13:19:50;;;;;;;;;;;3.90;28.20;;;;;;5137381;27;20336;-75
2024/01/09 13:22:15;;;;;;;;;;;3.90;28.50;;;;;;5137885;27;20309;-76
2024/01/09 13:24:41;;;;;;;;;;;4.00;27.30;;;;;;5118906;27;19949;-76
2024/01/09 13:27:06;;;;;;;;;;;4.00;27.50;;;;;;5119126;27;20333;-75
2024/01/09 13:29:32;;;;;;;;;;;3.90;27.40;;;;;;5119052;27;19911;-76
2024/01/09 13:31:57;;;;;;;;;;;4.00;28.40;;;;;;5119666;27;20017;-76
2024/01/09 13:34:23;;;;;;;;;;;3.90;27.90;;;;;;5139577;27;19998;-77
2024/01/09 13:36:48;;;;;;;;;;;3.80;28.70;;;;;;5121295;27;19950;-76
2024/01/09 13:39:15;;;;;;;;;;;3.70;28.50;;;;;;5135600;27;20010;-76
2024/01/09 13:41:41;;;;;;;;;;;3.80;28.60;;;;;;5117069;27;19918;-76
2024/01/09 13:44:06;;;;;;;;;;;3.90;27.80;;;;;;5135647;27;19907;-76
2024/01/09 13:46:32;;;;;;;;;;;3.80;28.60;;;;;;5135485;27;20448;-76
2024/01/09 13:48:57;;;;;;;;;;;3.90;28.30;;;;;;5116791;27;19931;-76
2024/01/09 13:51:23;;;;;;;;;;;3.80;28.00;;;;;;5116799;27;20000;-76
2024/01/09 13:53:52;;;;;;;;;;;3.70;28.30;;;;;;5135849;27;19916;-76
2024/01/09 13:56:17;;;;;;;;;;;3.70;28.30;;;;;;5135714;27;20009;-76
2024/01/09 13:58:43;;;;;;;;;;;3.80;28.10;;;;;;5117407;27;20006;-76
2024/01/09 14:01:09;;;;;;;;;;;3.60;29.10;;;;;;5117388;27;20389;-76
2024/01/09 14:03:34;;;;;;;;;;;3.60;29.30;;;;;;5117668;27;19968;-76
2024/01/09 14:06:00;;;;;;;;;;;3.40;29.10;;;;;;5135928;27;20379;-76
2024/01/09 14:08:26;;;;;;;;;;;3.50;29.00;;;;;;5136238;27;19912;-76
2024/01/09 14:10:51;;;;;;;;;;;3.40;28.90;;;;;;5117018;27;19964;-75
2024/01/09 14:13:18;;;;;;;;;;;3.60;28.60;;;;;;5116921;27;19919;-76
2024/01/09 14:15:44;;;;;;;;;;;3.60;28.20;;;;;;5116659;27;19961;-76
2024/01/09 14:18:09;;;;;;;;;;;3.50;28.90;;;;;;5135610;27;20276;-76
2024/01/09 14:20:35;;;;;;;;;;;3.50;27.80;;;;;;5117368;27;20006;-75